sensor_id;sensor_type;location;lat;lon;timestamp;pressure;altitude;pressure_sealevel;temperature;humidity
1401;BME280;46518;48.842;8.926;2023-04-03T00:01:21;97873.88;;;4.87;73.44
1401;BME280;46518;48.842;8.926;2023-04-03T00:03:51;97882.09;;;4.91;72.67
1401;BME280;46518;48.842;8.926;2023-04-03T00:06:20;97878.53;;;4.92;73.09
1401;BME280;46518;48.842;8.926;2023-04-03T00:08:49;97873.72;;;4.95;72.79
1401;BME280;46518;48.842;8.926;2023-04-03T00:11:18;97876.31;;;4.95;72.85
1401;BME280;46518;48.842;8.926;2023-04-03T00:13:48;97874.09;;;4.92;73.09
1401;BME280;46518;48.842;8.926;2023-04-03T00:16:16;97876.31;;;4.95;73.20
1401;BME280;46518;48.842;8.926;2023-04-03T00:18:44;97876.16;;;4.97;73.00
1401;BME280;46518;48.842;8.926;2023-04-03T00:21:12;97880.59;;;5.03;72.58
1401;BME280;46518;48.842;8.926;2023-04-03T00:23:41;97870.31;;;4.95;73.08
1401;BME280;46518;48.842;8.926;2023-04-03T00:26:09;97875.94;;;4.98;73.28
1401;BME280;46518;48.842;8.926;2023-04-03T00:28:39;97880.75;;;4.95;73.14
1401;BME280;46518;48.842;8.926;2023-04-03T00:31:09;97874.09;;;4.92;73.53
1401;BME280;46518;48.842;8.926;2023-04-03T00:33:37;97878.88;;;4.89;73.25
1401;BME280;46518;48.842;8.926;2023-04-03T00:36:06;97882.78;;;5.00;73.13
1401;BME280;46518;48.842;8.926;2023-04-03T00:38:36;97878.94;;;4.95;72.65
1401;BME280;46518;48.842;8.926;2023-04-03T00:41:05;97878.31;;;4.93;72.09
1401;BME280;46518;48.842;8.926;2023-04-03T00:43:33;97873.53;;;4.97;73.06
1401;BME280;46518;48.842;8.926;2023-04-03T00:46:01;97877.13;;;4.96;72.87
1401;BME280;46518;48.842;8.926;2023-04-03T00:48:32;97870.94;;;4.97;72.81
1401;BME280;46518;48.842;8.926;2023-04-03T00:51:02;97876.50;;;4.94;72.97
1401;BME280;46518;48.842;8.926;2023-04-03T00:53:34;97877.66;;;4.85;72.85
1401;BME280;46518;48.842;8.926;2023-04-03T00:56:06;97876.47;;;4.87;72.95
1401;BME280;46518;48.842;8.926;2023-04-03T00:58:40;97869.41;;;4.81;73.33
1401;BME280;46518;48.842;8.926;2023-04-03T01:01:12;97865.59;;;4.84;73.88
1401;BME280;46518;48.842;8.926;2023-04-03T01:03:43;97875.78;;;4.79;73.52
1401;BME280;46518;48.842;8.926;2023-04-03T01:06:13;97871.66;;;4.84;72.63
1401;BME280;46518;48.842;8.926;2023-04-03T01:08:44;97863.31;;;4.74;73.68
1401;BME280;46518;48.842;8.926;2023-04-03T01:11:14;97862.38;;;4.82;73.37
1401;BME280;46518;48.842;8.926;2023-04-03T01:13:43;97873.75;;;4.74;73.77
1401;BME280;46518;48.842;8.926;2023-04-03T01:16:12;97873.63;;;4.82;73.87
1401;BME280;46518;48.842;8.926;2023-04-03T01:18:42;97876.81;;;4.78;73.27
1401;BME280;46518;48.842;8.926;2023-04-03T01:24:30;97871.75;;;4.76;73.22
1401;BME280;46518;48.842;8.926;2023-04-03T01:27:03;97869.53;;;4.73;73.34
1401;BME280;46518;48.842;8.926;2023-04-03T01:29:31;97856.97;;;4.55;73.13
1401;BME280;46518;48.842;8.926;2023-04-03T01:32:02;97871.50;;;4.64;73.38
1401;BME280;46518;48.842;8.926;2023-04-03T01:34:31;97872.28;;;4.65;74.23
1401;BME280;46518;48.842;8.926;2023-04-03T01:37:00;97876.09;;;4.62;74.34
1401;BME280;46518;48.842;8.926;2023-04-03T01:39:28;97868.13;;;4.49;73.93
1401;BME280;46518;48.842;8.926;2023-04-03T01:41:56;97871.69;;;4.41;74.92
1401;BME280;46518;48.842;8.926;2023-04-03T01:44:30;97879.97;;;4.51;74.58
1401;BME280;46518;48.842;8.926;2023-04-03T01:46:59;97877.91;;;4.40;75.03
1401;BME280;46518;48.842;8.926;2023-04-03T01:49:30;97875.78;;;4.50;74.97
1401;BME280;46518;48.842;8.926;2023-04-03T01:51:58;97876.16;;;4.47;74.58
1401;BME280;46518;48.842;8.926;2023-04-03T01:54:26;97883.97;;;4.47;75.37
1401;BME280;46518;48.842;8.926;2023-04-03T01:56:55;97877.09;;;4.40;75.73
1401;BME280;46518;48.842;8.926;2023-04-03T01:59:23;97874.84;;;4.37;75.65
1401;BME280;46518;48.842;8.926;2023-04-03T02:01:52;97877.41;;;4.30;75.94
1401;BME280;46518;48.842;8.926;2023-04-03T02:04:21;97873.66;;;4.39;76.19
1401;BME280;46518;48.842;8.926;2023-04-03T02:06:51;97879.88;;;4.38;75.86
1401;BME280;46518;48.842;8.926;2023-04-03T02:09:19;97867.16;;;4.28;76.02
1401;BME280;46518;48.842;8.926;2023-04-03T02:11:47;97876.53;;;4.44;76.14
1401;BME280;46518;48.842;8.926;2023-04-03T02:14:15;97886.88;;;4.38;76.62
1401;BME280;46518;48.842;8.926;2023-04-03T02:16:43;97879.94;;;4.45;76.12
1401;BME280;46518;48.842;8.926;2023-04-03T02:19:12;97882.78;;;4.28;75.54
1401;BME280;46518;48.842;8.926;2023-04-03T02:21:40;97884.53;;;4.43;75.74
1401;BME280;46518;48.842;8.926;2023-04-03T02:24:10;97880.91;;;4.44;75.77
1401;BME280;46518;48.842;8.926;2023-04-03T02:26:39;97884.09;;;4.39;75.68
1401;BME280;46518;48.842;8.926;2023-04-03T02:29:07;97882.84;;;4.35;76.45
1401;BME280;46518;48.842;8.926;2023-04-03T02:31:35;97883.91;;;4.41;75.82
1401;BME280;46518;48.842;8.926;2023-04-03T02:34:04;97886.44;;;4.34;76.17
1401;BME280;46518;48.842;8.926;2023-04-03T02:36:34;97882.41;;;4.31;75.77
1401;BME280;46518;48.842;8.926;2023-04-03T02:39:05;97891.22;;;4.30;75.62
1401;BME280;46518;48.842;8.926;2023-04-03T02:41:36;97882.22;;;4.33;75.53
1401;BME280;46518;48.842;8.926;2023-04-03T02:44:10;97886.75;;;4.46;75.59
1401;BME280;46518;48.842;8.926;2023-04-03T02:46:39;97877.03;;;4.54;75.42
1401;BME280;46518;48.842;8.926;2023-04-03T02:49:07;97884.59;;;4.49;75.21
1401;BME280;46518;48.842;8.926;2023-04-03T02:51:35;97879.63;;;4.54;75.22
1401;BME280;46518;48.842;8.926;2023-04-03T02:54:04;97877.84;;;4.62;75.18
1401;BME280;46518;48.842;8.926;2023-04-03T02:56:36;97880.44;;;4.55;75.68
1401;BME280;46518;48.842;8.926;2023-04-03T02:59:05;97884.84;;;4.54;75.53
1401;BME280;46518;48.842;8.926;2023-04-03T03:01:35;97879.16;;;4.44;75.78
1401;BME280;46518;48.842;8.926;2023-04-03T03:04:03;97881.16;;;4.49;75.34
1401;BME280;46518;48.842;8.926;2023-04-03T03:06:31;97874.97;;;4.50;75.58
1401;BME280;46518;48.842;8.926;2023-04-03T03:09:00;97873.00;;;4.52;75.18
1401;BME280;46518;48.842;8.926;2023-04-03T03:11:28;97868.59;;;4.52;75.21
1401;BME280;46518;48.842;8.926;2023-04-03T03:13:58;97867.97;;;4.50;75.85
1401;BME280;46518;48.842;8.926;2023-04-03T03:16:26;97860.28;;;4.42;76.12
1401;BME280;46518;48.842;8.926;2023-04-03T03:18:55;97861.25;;;4.41;75.46
1401;BME280;46518;48.842;8.926;2023-04-03T03:21:25;97868.66;;;4.38;75.19
1401;BME280;46518;48.842;8.926;2023-04-03T03:23:53;97857.19;;;4.32;75.07
1401;BME280;46518;48.842;8.926;2023-04-03T03:26:22;97861.22;;;4.35;74.94
1401;BME280;46518;48.842;8.926;2023-04-03T03:28:50;97862.00;;;4.35;75.12
1401;BME280;46518;48.842;8.926;2023-04-03T03:31:20;97864.63;;;4.35;74.98
1401;BME280;46518;48.842;8.926;2023-04-03T03:33:48;97855.75;;;4.29;75.22
1401;BME280;46518;48.842;8.926;2023-04-03T03:36:18;97861.22;;;4.35;74.83
1401;BME280;46518;48.842;8.926;2023-04-03T03:38:46;97860.34;;;4.27;74.60
1401;BME280;46518;48.842;8.926;2023-04-03T03:41:14;97861.53;;;4.25;74.23
1401;BME280;46518;48.842;8.926;2023-04-03T03:43:44;97856.81;;;4.35;74.16
1401;BME280;46518;48.842;8.926;2023-04-03T03:46:14;97860.75;;;4.31;73.59
1401;BME280;46518;48.842;8.926;2023-04-03T03:48:44;97857.19;;;4.32;73.36
1401;BME280;46518;48.842;8.926;2023-04-03T03:51:13;97867.66;;;4.39;73.26
1401;BME280;46518;48.842;8.926;2023-04-03T03:53:41;97862.31;;;4.25;72.27
1401;BME280;46518;48.842;8.926;2023-04-03T03:56:13;97865.56;;;4.27;71.27
1401;BME280;46518;48.842;8.926;2023-04-03T03:58:43;97863.50;;;4.23;70.57
1401;BME280;46518;48.842;8.926;2023-04-03T04:01:12;97861.94;;;4.28;71.09
1401;BME280;46518;48.842;8.926;2023-04-03T04:03:47;97868.78;;;4.29;70.14
1401;BME280;46518;48.842;8.926;2023-04-03T04:06:20;97871.00;;;4.11;69.80
1401;BME280;46518;48.842;8.926;2023-04-03T04:08:49;97871.69;;;4.20;69.59
1401;BME280;46518;48.842;8.926;2023-04-03T04:11:17;97866.03;;;4.38;69.53
1401;BME280;46518;48.842;8.926;2023-04-03T04:13:46;97871.31;;;4.23;69.61
1401;BME280;46518;48.842;8.926;2023-04-03T04:16:17;97872.91;;;4.24;68.70
1401;BME280;46518;48.842;8.926;2023-04-03T04:18:47;97876.78;;;4.28;69.39
1401;BME280;46518;48.842;8.926;2023-04-03T04:21:15;97869.25;;;4.18;69.08
1401;BME280;46518;48.842;8.926;2023-04-03T04:23:44;97870.06;;;4.19;69.67
1401;BME280;46518;48.842;8.926;2023-04-03T04:26:14;97870.75;;;4.27;69.63
1401;BME280;46518;48.842;8.926;2023-04-03T04:28:42;97872.38;;;4.28;69.85
1401;BME280;46518;48.842;8.926;2023-04-03T04:31:10;97866.41;;;4.35;69.28
1401;BME280;46518;48.842;8.926;2023-04-03T04:33:39;97873.31;;;4.42;69.55
1401;BME280;46518;48.842;8.926;2023-04-03T04:36:12;97872.44;;;4.35;69.83
1401;BME280;46518;48.842;8.926;2023-04-03T04:38:44;97864.38;;;4.30;69.26
1401;BME280;46518;48.842;8.926;2023-04-03T04:41:13;97869.38;;;4.31;69.66
1401;BME280;46518;48.842;8.926;2023-04-03T04:43:41;97870.44;;;4.37;69.79
1401;BME280;46518;48.842;8.926;2023-04-03T04:46:10;97880.00;;;4.30;69.45
1401;BME280;46518;48.842;8.926;2023-04-03T04:48:44;97877.56;;;4.28;69.18
1401;BME280;46518;48.842;8.926;2023-04-03T04:51:15;97874.16;;;4.28;69.05
1401;BME280;46518;48.842;8.926;2023-04-03T04:53:43;97874.72;;;4.23;68.71
1401;BME280;46518;48.842;8.926;2023-04-03T04:56:15;97885.28;;;4.15;68.28
1401;BME280;46518;48.842;8.926;2023-04-03T04:58:43;97879.69;;;4.18;68.48
1401;BME280;46518;48.842;8.926;2023-04-03T05:01:11;97879.94;;;4.23;68.66
1401;BME280;46518;48.842;8.926;2023-04-03T05:03:50;97884.50;;;4.21;68.64
1401;BME280;46518;48.842;8.926;2023-04-03T05:06:20;97886.56;;;4.26;67.89
1401;BME280;46518;48.842;8.926;2023-04-03T05:08:49;97886.19;;;4.29;67.98
1401;BME280;46518;48.842;8.926;2023-04-03T05:11:18;97887.03;;;4.29;66.50
1401;BME280;46518;48.842;8.926;2023-04-03T05:13:51;97888.13;;;4.42;65.99
1401;BME280;46518;48.842;8.926;2023-04-03T05:16:21;97901.03;;;4.28;64.88
1401;BME280;46518;48.842;8.926;2023-04-03T05:18:50;97893.28;;;4.35;64.66
1401;BME280;46518;48.842;8.926;2023-04-03T05:21:22;97904.94;;;4.39;63.98
1401;BME280;46518;48.842;8.926;2023-04-03T05:23:53;97884.41;;;4.29;63.72
1401;BME280;46518;48.842;8.926;2023-04-03T05:26:21;97895.88;;;4.35;64.75
1401;BME280;46518;48.842;8.926;2023-04-03T05:28:50;97905.25;;;4.29;65.52
1401;BME280;46518;48.842;8.926;2023-04-03T05:31:19;97909.41;;;4.24;66.29
1401;BME280;46518;48.842;8.926;2023-04-03T05:33:48;97907.28;;;4.13;66.89
1401;BME280;46518;48.842;8.926;2023-04-03T05:36:18;97904.25;;;3.94;67.81
1401;BME280;46518;48.842;8.926;2023-04-03T05:38:51;97909.22;;;3.89;68.29
1401;BME280;46518;48.842;8.926;2023-04-03T05:41:20;97916.81;;;4.05;68.53
1401;BME280;46518;48.842;8.926;2023-04-03T05:43:49;97912.16;;;4.01;69.42
1401;BME280;46518;48.842;8.926;2023-04-03T05:46:19;97920.72;;;3.95;69.13
1401;BME280;46518;48.842;8.926;2023-04-03T05:48:53;97918.00;;;4.03;69.31
1401;BME280;46518;48.842;8.926;2023-04-03T05:51:25;97916.97;;;4.19;69.22
1401;BME280;46518;48.842;8.926;2023-04-03T05:54:06;97910.31;;;4.16;69.52
1401;BME280;46518;48.842;8.926;2023-04-03T05:56:36;97923.25;;;4.24;68.55
1401;BME280;46518;48.842;8.926;2023-04-03T05:59:04;97918.38;;;4.21;69.02
1401;BME280;46518;48.842;8.926;2023-04-03T06:01:34;97927.34;;;4.33;68.51
1401;BME280;46518;48.842;8.926;2023-04-03T06:04:02;97925.59;;;4.41;68.79
1401;BME280;46518;48.842;8.926;2023-04-03T06:06:46;97919.34;;;4.35;67.98
1401;BME280;46518;48.842;8.926;2023-04-03T06:09:17;97928.59;;;4.38;68.43
1401;BME280;46518;48.842;8.926;2023-04-03T06:11:45;97932.78;;;4.39;68.08
1401;BME280;46518;48.842;8.926;2023-04-03T06:14:15;97927.88;;;4.29;68.13
1401;BME280;46518;48.842;8.926;2023-04-03T06:16:43;97931.44;;;4.43;68.68
1401;BME280;46518;48.842;8.926;2023-04-03T06:19:12;97931.69;;;4.48;68.09
1401;BME280;46518;48.842;8.926;2023-04-03T06:21:45;97939.94;;;4.51;67.45
1401;BME280;46518;48.842;8.926;2023-04-03T06:24:17;97940.25;;;4.63;67.01
1401;BME280;46518;48.842;8.926;2023-04-03T06:26:46;97940.00;;;4.58;67.26
1401;BME280;46518;48.842;8.926;2023-04-03T06:29:15;97942.69;;;4.65;66.85
1401;BME280;46518;48.842;8.926;2023-04-03T06:31:43;97937.66;;;4.63;67.02
1401;BME280;46518;48.842;8.926;2023-04-03T06:34:12;97937.28;;;4.66;67.41
1401;BME280;46518;48.842;8.926;2023-04-03T06:36:41;97928.78;;;4.58;67.44
1401;BME280;46518;48.842;8.926;2023-04-03T06:39:13;97937.97;;;4.53;66.01
1401;BME280;46518;48.842;8.926;2023-04-03T06:41:43;97940.88;;;4.65;66.83
1401;BME280;46518;48.842;8.926;2023-04-03T06:44:12;97943.91;;;4.69;66.68
1401;BME280;46518;48.842;8.926;2023-04-03T06:46:43;97938.69;;;4.69;67.34
1401;BME280;46518;48.842;8.926;2023-04-03T06:49:12;97928.84;;;4.64;67.24
1401;BME280;46518;48.842;8.926;2023-04-03T06:51:42;97942.47;;;4.66;66.99
1401;BME280;46518;48.842;8.926;2023-04-03T06:54:10;97931.81;;;4.61;67.39
1401;BME280;46518;48.842;8.926;2023-04-03T06:56:41;97952.56;;;4.69;67.72
1401;BME280;46518;48.842;8.926;2023-04-03T06:59:21;97951.25;;;4.59;67.06
1401;BME280;46518;48.842;8.926;2023-04-03T07:02:00;97950.19;;;4.53;68.16
1401;BME280;46518;48.842;8.926;2023-04-03T07:04:32;97960.00;;;4.51;68.53
1401;BME280;46518;48.842;8.926;2023-04-03T07:07:07;97955.22;;;4.54;67.77
1401;BME280;46518;48.842;8.926;2023-04-03T07:09:46;97946.41;;;4.56;67.44
1401;BME280;46518;48.842;8.926;2023-04-03T07:12:19;97962.13;;;4.62;68.21
1401;BME280;46518;48.842;8.926;2023-04-03T07:14:53;97948.53;;;4.67;68.33
1401;BME280;46518;48.842;8.926;2023-04-03T07:17:28;97963.97;;;4.90;68.10
1401;BME280;46518;48.842;8.926;2023-04-03T07:20:03;97972.34;;;4.85;67.60
1401;BME280;46518;48.842;8.926;2023-04-03T07:22:36;97957.88;;;4.83;67.88
1401;BME280;46518;48.842;8.926;2023-04-03T07:25:09;97969.44;;;4.95;68.07
1401;BME280;46518;48.842;8.926;2023-04-03T07:27:38;97953.16;;;4.93;67.50
1401;BME280;46518;48.842;8.926;2023-04-03T07:30:09;97960.03;;;5.01;67.39
1401;BME280;46518;48.842;8.926;2023-04-03T07:32:39;97955.13;;;4.91;67.50
1401;BME280;46518;48.842;8.926;2023-04-03T07:35:08;97979.78;;;4.88;67.37
1401;BME280;46518;48.842;8.926;2023-04-03T07:37:37;97976.31;;;5.03;67.53
1401;BME280;46518;48.842;8.926;2023-04-03T07:40:07;97982.56;;;5.08;67.16
1401;BME280;46518;48.842;8.926;2023-04-03T07:42:35;97969.75;;;5.07;68.14
1401;BME280;46518;48.842;8.926;2023-04-03T07:45:06;97961.53;;;5.10;67.94
1401;BME280;46518;48.842;8.926;2023-04-03T07:47:38;97973.41;;;5.19;67.45
1401;BME280;46518;48.842;8.926;2023-04-03T07:50:08;97979.25;;;5.21;66.87
1401;BME280;46518;48.842;8.926;2023-04-03T07:52:36;97981.50;;;5.24;66.90
1401;BME280;46518;48.842;8.926;2023-04-03T07:55:08;97979.25;;;5.21;66.41
1401;BME280;46518;48.842;8.926;2023-04-03T07:57:38;97974.44;;;5.18;66.68
1401;BME280;46518;48.842;8.926;2023-04-03T08:00:08;97980.06;;;5.22;65.55
1401;BME280;46518;48.842;8.926;2023-04-03T08:02:43;97988.28;;;5.18;66.77
1401;BME280;46518;48.842;8.926;2023-04-03T08:05:18;97971.72;;;5.05;65.81
1401;BME280;46518;48.842;8.926;2023-04-03T08:07:51;97994.75;;;5.01;66.85
1401;BME280;46518;48.842;8.926;2023-04-03T08:10:30;97989.13;;;4.97;67.59
1401;BME280;46518;48.842;8.926;2023-04-03T08:13:06;98007.50;;;5.11;67.49
1401;BME280;46518;48.842;8.926;2023-04-03T08:15:41;97987.16;;;5.06;67.82
1401;BME280;46518;48.842;8.926;2023-04-03T08:18:17;97995.13;;;5.19;67.96
1401;BME280;46518;48.842;8.926;2023-04-03T08:20:54;98002.00;;;5.27;66.84
1401;BME280;46518;48.842;8.926;2023-04-03T08:23:28;97989.44;;;5.37;66.86
1401;BME280;46518;48.842;8.926;2023-04-03T08:26:08;97996.94;;;5.47;67.23
1401;BME280;46518;48.842;8.926;2023-04-03T08:28:42;97996.72;;;5.21;66.03
1401;BME280;46518;48.842;8.926;2023-04-03T08:31:18;97986.69;;;5.17;66.76
1401;BME280;46518;48.842;8.926;2023-04-03T08:33:54;98000.44;;;5.33;67.61
1401;BME280;46518;48.842;8.926;2023-04-03T08:36:24;97997.72;;;5.48;66.93
1401;BME280;46518;48.842;8.926;2023-04-03T08:38:54;98002.50;;;5.44;67.07
1401;BME280;46518;48.842;8.926;2023-04-03T08:41:29;97999.72;;;5.46;67.45
1401;BME280;46518;48.842;8.926;2023-04-03T08:44:17;97998.59;;;5.55;66.86
1401;BME280;46518;48.842;8.926;2023-04-03T08:46:59;98002.00;;;5.55;67.01
1401;BME280;46518;48.842;8.926;2023-04-03T08:49:33;97995.63;;;5.65;66.20
1401;BME280;46518;48.842;8.926;2023-04-03T08:52:09;98003.38;;;5.86;66.28
1401;BME280;46518;48.842;8.926;2023-04-03T08:54:49;97998.09;;;5.73;66.97
1401;BME280;46518;48.842;8.926;2023-04-03T08:57:26;98008.78;;;5.78;66.51
1401;BME280;46518;48.842;8.926;2023-04-03T08:59:59;98002.69;;;5.71;66.40
1401;BME280;46518;48.842;8.926;2023-04-03T09:02:33;98006.19;;;5.84;66.30
1401;BME280;46518;48.842;8.926;2023-04-03T09:05:11;98008.16;;;5.76;65.02
1401;BME280;46518;48.842;8.926;2023-04-03T09:07:44;97999.41;;;5.90;65.05
1401;BME280;46518;48.842;8.926;2023-04-03T09:10:19;97997.84;;;5.96;64.63
1401;BME280;46518;48.842;8.926;2023-04-03T09:12:53;98005.50;;;6.04;64.62
1401;BME280;46518;48.842;8.926;2023-04-03T09:15:26;98009.19;;;6.16;64.11
1401;BME280;46518;48.842;8.926;2023-04-03T09:18:08;97998.00;;;6.29;63.32
1401;BME280;46518;48.842;8.926;2023-04-03T09:20:46;98009.47;;;6.35;63.80
1401;BME280;46518;48.842;8.926;2023-04-03T09:23:33;98008.34;;;6.57;63.34
1401;BME280;46518;48.842;8.926;2023-04-03T09:26:13;98008.47;;;6.36;63.26
1401;BME280;46518;48.842;8.926;2023-04-03T09:28:42;98006.91;;;6.48;63.68
1401;BME280;46518;48.842;8.926;2023-04-03T09:31:20;97999.28;;;6.60;62.97
1401;BME280;46518;48.842;8.926;2023-04-03T09:33:50;98004.91;;;6.57;62.56
1401;BME280;46518;48.842;8.926;2023-04-03T09:36:44;98002.94;;;6.72;61.91
1401;BME280;46518;48.842;8.926;2023-04-03T09:39:14;98010.59;;;6.80;61.02
1401;BME280;46518;48.842;8.926;2023-04-03T09:41:56;97998.28;;;6.61;60.14
1401;BME280;46518;48.842;8.926;2023-04-03T09:44:27;98003.50;;;6.61;58.71
1401;BME280;46518;48.842;8.926;2023-04-03T09:46:55;98001.09;;;6.53;58.77
1401;BME280;46518;48.842;8.926;2023-04-03T09:49:24;98005.34;;;6.67;59.68
1401;BME280;46518;48.842;8.926;2023-04-03T09:51:53;98000.91;;;6.67;59.25
1401;BME280;46518;48.842;8.926;2023-04-03T09:54:32;98002.31;;;6.63;59.52
1401;BME280;46518;48.842;8.926;2023-04-03T09:57:08;98005.06;;;6.42;59.82
1401;BME280;46518;48.842;8.926;2023-04-03T09:59:41;98000.66;;;6.42;60.99
1401;BME280;46518;48.842;8.926;2023-04-03T10:02:28;98000.84;;;6.41;60.43
1401;BME280;46518;48.842;8.926;2023-04-03T10:04:58;97994.66;;;6.68;60.73
1401;BME280;46518;48.842;8.926;2023-04-03T10:07:38;97975.34;;;6.63;60.39
1401;BME280;46518;48.842;8.926;2023-04-03T10:10:18;97987.47;;;6.90;60.27
1401;BME280;46518;48.842;8.926;2023-04-03T10:13:04;97984.44;;;7.00;59.21
1401;BME280;46518;48.842;8.926;2023-04-03T10:15:36;97994.28;;;6.65;58.65
1401;BME280;46518;48.842;8.926;2023-04-03T10:18:24;97982.59;;;6.54;59.20
1401;BME280;46518;48.842;8.926;2023-04-03T10:20:59;97996.28;;;6.76;59.84
1401;BME280;46518;48.842;8.926;2023-04-03T10:23:39;97974.59;;;6.82;59.53
1401;BME280;46518;48.842;8.926;2023-04-03T10:26:15;97988.69;;;7.15;59.68
1401;BME280;46518;48.842;8.926;2023-04-03T10:28:48;97974.59;;;7.22;58.77
1401;BME280;46518;48.842;8.926;2023-04-03T10:31:24;97979.00;;;6.95;57.11
1401;BME280;46518;48.842;8.926;2023-04-03T10:33:59;97987.47;;;6.90;58.04
1401;BME280;46518;48.842;8.926;2023-04-03T10:36:39;97981.03;;;6.86;57.39
1401;BME280;46518;48.842;8.926;2023-04-03T10:39:21;97983.22;;;6.83;57.26
1401;BME280;46518;48.842;8.926;2023-04-03T10:42:01;97980.78;;;6.81;57.81
1401;BME280;46518;48.842;8.926;2023-04-03T10:44:55;97989.47;;;6.95;57.79
1401;BME280;46518;48.842;8.926;2023-04-03T10:47:32;97984.25;;;6.95;57.76
1401;BME280;46518;48.842;8.926;2023-04-03T10:50:15;97982.22;;;6.84;57.26
1401;BME280;46518;48.842;8.926;2023-04-03T10:52:55;97985.03;;;6.69;57.34
1401;BME280;46518;48.842;8.926;2023-04-03T10:55:33;97989.47;;;6.75;57.12
1401;BME280;46518;48.842;8.926;2023-04-03T10:58:05;97993.66;;;6.63;57.31
1401;BME280;46518;48.842;8.926;2023-04-03T11:00:38;97996.88;;;6.58;57.30
1401;BME280;46518;48.842;8.926;2023-04-03T11:03:11;97994.28;;;6.72;57.17
1401;BME280;46518;48.842;8.926;2023-04-03T11:05:44;97982.59;;;6.67;57.69
1401;BME280;46518;48.842;8.926;2023-04-03T11:08:21;97981.78;;;6.74;57.70
1401;BME280;46518;48.842;8.926;2023-04-03T11:10:57;97988.28;;;6.98;57.35
1401;BME280;46518;48.842;8.926;2023-04-03T11:13:30;97983.66;;;7.00;56.97
1401;BME280;46518;48.842;8.926;2023-04-03T11:16:01;97985.44;;;6.86;56.89
1401;BME280;46518;48.842;8.926;2023-04-03T11:18:35;97979.41;;;6.99;57.07
1401;BME280;46518;48.842;8.926;2023-04-03T11:21:08;97975.59;;;7.01;56.64
1401;BME280;46518;48.842;8.926;2023-04-03T11:23:40;97978.22;;;6.95;56.54
1401;BME280;46518;48.842;8.926;2023-04-03T11:26:19;97979.22;;;6.87;56.06
1401;BME280;46518;48.842;8.926;2023-04-03T11:28:52;97968.53;;;6.95;55.85
1401;BME280;46518;48.842;8.926;2023-04-03T11:31:33;97971.97;;;6.96;56.13
1401;BME280;46518;48.842;8.926;2023-04-03T11:34:15;97966.13;;;6.80;55.65
1401;BME280;46518;48.842;8.926;2023-04-03T11:36:49;97972.16;;;6.81;56.47
1401;BME280;46518;48.842;8.926;2023-04-03T11:39:23;97965.94;;;6.95;55.14
1401;BME280;46518;48.842;8.926;2023-04-03T11:41:54;97971.34;;;6.80;56.07
1401;BME280;46518;48.842;8.926;2023-04-03T11:44:38;97966.94;;;6.74;55.90
1401;BME280;46518;48.842;8.926;2023-04-03T11:47:07;97971.75;;;6.77;54.68
1401;BME280;46518;48.842;8.926;2023-04-03T11:49:56;97973.75;;;6.88;53.83
1401;BME280;46518;48.842;8.926;2023-04-03T11:52:59;97964.91;;;6.69;53.29
1401;BME280;46518;48.842;8.926;2023-04-03T11:59:16;97954.66;;;7.08;53.72
1401;BME280;46518;48.842;8.926;2023-04-03T12:01:50;97955.66;;;7.20;53.86
1401;BME280;46518;48.842;8.926;2023-04-03T12:04:20;97954.06;;;7.12;54.06
1401;BME280;46518;48.842;8.926;2023-04-03T12:10:15;97953.25;;;7.25;54.27
1401;BME280;46518;48.842;8.926;2023-04-03T12:12:59;97949.00;;;7.38;53.80
1401;BME280;46518;48.842;8.926;2023-04-03T12:15:53;97947.19;;;7.38;54.55
1401;BME280;46518;48.842;8.926;2023-04-03T12:18:58;97943.19;;;7.29;52.62
1401;BME280;46518;48.842;8.926;2023-04-03T12:22:10;97939.56;;;7.10;53.24
1401;BME280;46518;48.842;8.926;2023-04-03T12:24:40;97945.19;;;7.20;53.04
1401;BME280;46518;48.842;8.926;2023-04-03T12:30:13;97939.78;;;7.02;53.62
1401;BME280;46518;48.842;8.926;2023-04-03T12:33:02;97945.41;;;7.05;53.56
1401;BME280;46518;48.842;8.926;2023-04-03T12:35:44;97937.75;;;7.17;53.50
1401;BME280;46518;48.842;8.926;2023-04-03T12:41:30;97939.53;;;7.30;51.77
1401;BME280;46518;48.842;8.926;2023-04-03T12:44:22;97940.31;;;7.44;50.66
1401;BME280;46518;48.842;8.926;2023-04-03T12:46:53;97934.28;;;7.43;50.78
1401;BME280;46518;48.842;8.926;2023-04-03T12:49:33;97923.00;;;7.49;49.09
1401;BME280;46518;48.842;8.926;2023-04-03T12:52:17;97921.94;;;7.64;48.19
1401;BME280;46518;48.842;8.926;2023-04-03T12:54:48;97935.00;;;7.70;49.56
1401;BME280;46518;48.842;8.926;2023-04-03T12:57:19;97925.69;;;7.81;47.71
1401;BME280;46518;48.842;8.926;2023-04-03T12:59:48;97929.03;;;7.56;47.70
1401;BME280;46518;48.842;8.926;2023-04-03T13:02:22;97929.81;;;7.50;47.45
1401;BME280;46518;48.842;8.926;2023-04-03T13:04:54;97931.84;;;7.48;47.85
1401;BME280;46518;48.842;8.926;2023-04-03T13:07:27;97926.19;;;7.58;47.23
1401;BME280;46518;48.842;8.926;2023-04-03T13:10:00;97925.38;;;7.57;47.45
1401;BME280;46518;48.842;8.926;2023-04-03T13:12:29;97927.81;;;7.46;46.95
1401;BME280;46518;48.842;8.926;2023-04-03T13:15:00;97927.03;;;7.45;47.57
1401;BME280;46518;48.842;8.926;2023-04-03T13:17:31;97925.44;;;7.38;47.86
1401;BME280;46518;48.842;8.926;2023-04-03T13:20:16;97914.56;;;7.34;47.73
1401;BME280;46518;48.842;8.926;2023-04-03T13:22:53;97923.16;;;7.61;48.24
1401;BME280;46518;48.842;8.926;2023-04-03T13:25:27;97913.78;;;7.92;48.55
1401;BME280;46518;48.842;8.926;2023-04-03T13:27:57;97915.38;;;7.93;47.93
1401;BME280;46518;48.842;8.926;2023-04-03T13:30:40;97913.25;;;7.63;47.88
1401;BME280;46518;48.842;8.926;2023-04-03T13:33:21;97914.06;;;7.70;48.34
1401;BME280;46518;48.842;8.926;2023-04-03T13:35:57;97919.56;;;8.00;47.83
1401;BME280;46518;48.842;8.926;2023-04-03T13:38:29;97921.03;;;7.90;47.81
1401;BME280;46518;48.842;8.926;2023-04-03T13:41:01;97917.75;;;8.08;47.37
1401;BME280;46518;48.842;8.926;2023-04-03T13:43:33;97912.50;;;8.01;47.73
1401;BME280;46518;48.842;8.926;2023-04-03T13:46:05;97912.75;;;7.99;47.52
1401;BME280;46518;48.842;8.926;2023-04-03T13:48:39;97916.34;;;8.05;46.96
1401;BME280;46518;48.842;8.926;2023-04-03T13:51:20;97916.34;;;8.05;47.39
1401;BME280;46518;48.842;8.926;2023-04-03T13:53:51;97913.28;;;8.08;47.10
1401;BME280;46518;48.842;8.926;2023-04-03T13:56:27;97920.16;;;8.09;47.41
1401;BME280;46518;48.842;8.926;2023-04-03T13:59:02;97917.41;;;7.91;46.74
1401;BME280;46518;48.842;8.926;2023-04-03T14:01:41;97920.00;;;7.97;46.63
1401;BME280;46518;48.842;8.926;2023-04-03T14:04:15;97910.56;;;7.90;46.72
1401;BME280;46518;48.842;8.926;2023-04-03T14:06:47;97910.75;;;7.95;47.02
1401;BME280;46518;48.842;8.926;2023-04-03T14:09:16;97905.50;;;7.95;46.79